No particular awareness of the weather is required.    There are no Weather-warnings


Meteo18 Weather Cam more information Meteo18 Weather Cam


Thunder radar more information blitzortung!


Rain radar more information rain snow radar


Visit our other weather sites:

Template documentation
and downloads

And another site



Weather Underground History page Text

Daily Summary for January 22, 2017 Units:  English    Metric   Both
« Previous Day
Next Day »
Daily Weekly Monthly Yearly Custom
  High: Low: Average:
Temperature: 41.7 °F 22.3 °F 30.9 °F
Dew Point: 28.8 °F 19.8 °F 25 °F
Humidity: 93 % 55 % 79 %
Wind Speed: 7 mph 0 mph 1.5 mph
Wind Gust: 10 mph - -
Wind:- - South
Pressure: 30.3 in 30.2 in -
Precipitation: 0 in    
Historical Graphs
 
 
Tabular Data for January 22, 2017
Time Temperature Dew Point Pressure Wind Wind Speed Wind Gust Humidity Rainfall Rate (Hourly)
00:02 27.9 °F 24.4 °F 30.3 in NW 1 mph   87 % 0 in
00:07 28 °F 24.4 °F 30.3 in North 2 mph 2 mph 86 % 0 in
00:12 27.7 °F 24.1 °F 30.3 in NNW 2 mph 3 mph 86 % 0 in
00:17 27.9 °F 24.3 °F 30.3 in NNW 2 mph 3 mph 86 % 0 in
00:22 28 °F 24.4 °F 30.3 in North 1 mph 3 mph 86 % 0 in
00:27 28.2 °F 24.6 °F 30.3 in NNW 1 mph 3 mph 86 % 0 in
00:32 28.6 °F 25 °F 30.3 in North 1 mph 3 mph 86 % 0 in
00:37 28.8 °F 24.8 °F 30.3 in North 1 mph 3 mph 85 % 0 in
00:42 28.8 °F 24.8 °F 30.3 in North 1 mph 2 mph 85 % 0 in
00:47 28.8 °F 24.8 °F 30.3 in Calm   2 mph 85 % 0 in
00:52 28.4 °F 24.4 °F 30.3 in North 1 mph 1 mph 85 % 0 in
00:57 28.2 °F 24.3 °F 30.3 in Calm   1 mph 85 % 0 in
01:02 28.2 °F 24.6 °F 30.3 in North 1 mph 1 mph 86 % 0 in
01:07 28 °F 24.1 °F 30.3 in Calm   2 mph 85 % 0 in
01:12 27.3 °F 23.7 °F 30.3 in Calm   2 mph 86 % 0 in
01:17 27.3 °F 23.7 °F 30.3 in Calm   2 mph 86 % 0 in
01:22 27.7 °F 24.3 °F 30.3 in NNE 1 mph 1 mph 87 % 0 in
01:27 28 °F 24.4 °F 30.3 in NE 1 mph 1 mph 86 % 0 in
01:32 27.9 °F 24.3 °F 30.3 in NW 1 mph 1 mph 86 % 0 in
01:37 27.7 °F 24.1 °F 30.3 in NW 1 mph 1 mph 86 % 0 in
01:42 27.3 °F 23.7 °F 30.3 in Calm   2 mph 86 % 0 in
01:47 27.7 °F 24.3 °F 30.3 in NW 1 mph 2 mph 87 % 0 in
01:52 27.9 °F 24.4 °F 30.3 in NW 1 mph 2 mph 87 % 0 in
01:57 26.8 °F 22.8 °F 30.3 in WNW 2 mph 2 mph 85 % 0 in
02:02 25.5 °F 22.3 °F 30.3 in WNW 2 mph 2 mph 87 % 0 in
02:07 24.6 °F 21.6 °F 30.3 in WNW 1 mph 2 mph 88 % 0 in
02:12 25.2 °F 22.8 °F 30.3 in Calm   2 mph 91 % 0 in
02:17 25.9 °F 23.4 °F 30.3 in Calm   2 mph 90 % 0 in
02:22 26.2 °F 23.4 °F 30.3 in Calm   1 mph 89 % 0 in
02:27 26.4 °F 23.5 °F 30.3 in Calm   1 mph 89 % 0 in
02:32 26.2 °F 23.2 °F 30.3 in NNE 1 mph 1 mph 88 % 0 in
02:37 26.1 °F 23 °F 30.3 in NNE 2 mph 2 mph 88 % 0 in
02:42 25.9 °F 22.8 °F 30.3 in Calm   2 mph 88 % 0 in
02:47 25.2 °F 21.9 °F 30.3 in Calm   2 mph 87 % 0 in
02:52 25.7 °F 23.2 °F 30.3 in Calm   2 mph 90 % 0 in
02:57 25.7 °F 23 °F 30.3 in Calm   1 mph 89 % 0 in
03:02 25.2 °F 22.1 °F 30.3 in Calm   1 mph 88 % 0 in
03:07 24.4 °F 21.4 °F 30.3 in Calm   1 mph 88 % 0 in
03:12 24.4 °F 21.7 °F 30.3 in Calm   1 mph 89 % 0 in
03:17 23.7 °F 21 °F 30.3 in Calm   1 mph 89 % 0 in
03:22 24.1 °F 22.1 °F 30.3 in Calm   1 mph 92 % 0 in
03:27 24.8 °F 22.5 °F 30.3 in Calm   1 mph 91 % 0 in
03:32 25.5 °F 23.5 °F 30.3 in Calm   1 mph 92 % 0 in
03:37 25.2 °F 22.6 °F 30.3 in Calm   1 mph 90 % 0 in
03:42 25 °F 22.5 °F 30.3 in WNW 1 mph 1 mph 90 % 0 in
03:47 24.6 °F 22.5 °F 30.3 in Calm   1 mph 91 % 0 in
03:52 25 °F 23 °F 30.3 in Calm   1 mph 92 % 0 in
03:57 25.3 °F 23.4 °F 30.3 in Calm   1 mph 92 % 0 in
04:02 25.5 °F 23.5 °F 30.3 in Calm   1 mph 92 % 0 in
04:07 25.9 °F 23.9 °F 30.3 in Calm   1 mph 92 % 0 in
04:17 26.2 °F 23.9 °F 30.3 in Calm   1 mph 91 % 0 in
04:22 26.4 °F 23.9 °F 30.3 in Calm   1 mph 90 % 0 in
04:27 25.9 °F 23 °F 30.3 in Calm     89 % 0 in
04:32 25.7 °F 23.2 °F 30.3 in Calm     90 % 0 in
04:37 25.5 °F 23 °F 30.3 in Calm     90 % 0 in
04:42 24.4 °F 21.7 °F 30.3 in Calm   1 mph 89 % 0 in
04:47 24.3 °F 22.1 °F 30.3 in Calm   1 mph 91 % 0 in
04:52 23.7 °F 21.2 °F 30.3 in Calm   1 mph 90 % 0 in
04:57 23.2 °F 20.7 °F 30.3 in Calm   1 mph 90 % 0 in
05:02 23.2 °F 21.2 °F 30.3 in Calm   1 mph 92 % 0 in
05:12 24.4 °F 22.6 °F 30.3 in NW 1 mph   93 % 0 in
05:17 25.3 °F 23.5 °F 30.3 in Calm   1 mph 93 % 0 in
05:22 25.3 °F 23 °F 30.3 in North 1 mph 1 mph 91 % 0 in
05:32 23.7 °F 21.2 °F 30.3 in Calm   2 mph 90 % 0 in
05:37 23 °F 20.5 °F 30.3 in NNE 1 mph 2 mph 90 % 0 in
05:42 22.8 °F 20.8 °F 30.3 in North 1 mph 2 mph 92 % 0 in
05:47 23.2 °F 21.4 °F 30.3 in Calm   2 mph 93 % 0 in
05:52 23.2 °F 21.2 °F 30.3 in Calm   2 mph 92 % 0 in
05:57 23.2 °F 21.2 °F 30.3 in Calm   1 mph 92 % 0 in
06:02 22.6 °F 20.5 °F 30.3 in Calm   1 mph 91 % 0 in
06:07 22.6 °F 20.7 °F 30.3 in Calm   1 mph 92 % 0 in
06:12 22.8 °F 21 °F 30.3 in Calm   1 mph 93 % 0 in
06:17 23.2 °F 21.4 °F 30.3 in Calm   1 mph 93 % 0 in
06:22 23.7 °F 21.9 °F 30.3 in Calm   1 mph 93 % 0 in
06:32 24.3 °F 22.5 °F 30.3 in Calm   1 mph 93 % 0 in
06:42 24.4 °F 21.9 °F 30.3 in Calm   2 mph 90 % 0 in
06:47 24.1 °F 21.9 °F 30.3 in North 1 mph 2 mph 91 % 0 in
06:57 22.3 °F 19.8 °F 30.3 in North 1 mph 1 mph 90 % 0 in
07:02 22.3 °F 20.1 °F 30.3 in NNE 1 mph 1 mph 91 % 0 in
07:12 22.8 °F 21 °F 30.3 in North 1 mph 1 mph 93 % 0 in
07:17 23.5 °F 21.7 °F 30.3 in NNW 1 mph 1 mph 93 % 0 in
07:22 24.3 °F 22.1 °F 30.3 in Calm   1 mph 91 % 0 in
07:32 25 °F 21.9 °F 30.3 in Calm   1 mph 88 % 0 in
07:37 25 °F 21.7 °F 30.3 in Calm   1 mph 87 % 0 in
07:42 24.6 °F 21.4 °F 30.3 in Calm   1 mph 87 % 0 in
07:47 24.4 °F 21.2 °F 30.3 in Calm   1 mph 87 % 0 in
07:52 24.6 °F 21.6 °F 30.3 in Calm   1 mph 88 % 0 in
07:57 25.2 °F 21.9 °F 30.3 in Calm     87 % 0 in
08:02 25.2 °F 21.6 °F 30.3 in Calm     86 % 0 in
08:12 25.3 °F 21.7 °F 30.3 in NW 1 mph 1 mph 86 % 0 in
08:17 26.1 °F 21.9 °F 30.3 in Calm   1 mph 84 % 0 in
08:22 26.2 °F 21.7 °F 30.3 in Calm   1 mph 83 % 0 in
08:27 25.3 °F 20.8 °F 30.3 in Calm   1 mph 83 % 0 in
08:32 24.6 °F 21 °F 30.3 in North 1 mph 1 mph 86 % 0 in
08:37 23.7 °F 20.5 °F 30.3 in Calm   2 mph 87 % 0 in
08:42 24.1 °F 20.8 °F 30.3 in NNW 1 mph 2 mph 87 % 0 in
08:47 24.4 °F 21.2 °F 30.3 in NNW 1 mph 2 mph 87 % 0 in
08:52 25 °F 21.2 °F 30.3 in NW 1 mph 2 mph 85 % 0 in
08:57 25.2 °F 21 °F 30.3 in Calm   3 mph 84 % 0 in
09:02 25.2 °F 21 °F 30.3 in Calm   3 mph 84 % 0 in
09:12 26.2 °F 21.6 °F 30.3 in Calm   1 mph 82 % 0 in
09:17 26.1 °F 21 °F 30.3 in Calm   2 mph 81 % 0 in
09:22 25.5 °F 20.5 °F 30.3 in Calm   2 mph 81 % 0 in
09:32 24.8 °F 20.7 °F 30.3 in East 1 mph 2 mph 84 % 0 in
09:37 24.6 °F 21 °F 30.3 in ENE 1 mph 1 mph 86 % 0 in
09:42 24.3 °F 21 °F 30.3 in ENE 1 mph 1 mph 87 % 0 in
09:47 24.3 °F 21 °F 30.3 in Calm   2 mph 87 % 0 in
09:52 24.4 °F 21.2 °F 30.3 in Calm   2 mph 87 % 0 in
10:02 24.8 °F 21.6 °F 30.3 in Calm   2 mph 87 % 0 in
10:07 25 °F 21.7 °F 30.3 in Calm   1 mph 87 % 0 in
10:12 25.5 °F 21.9 °F 30.3 in Calm   1 mph 86 % 0 in
10:22 26.2 °F 22.3 °F 30.3 in Calm   1 mph 85 % 0 in
10:27 26.8 °F 22.8 °F 30.3 in Calm   1 mph 85 % 0 in
10:32 27.3 °F 23.4 °F 30.3 in Calm   1 mph 85 % 0 in
10:37 27.3 °F 23.2 °F 30.3 in Calm   1 mph 84 % 0 in
10:42 27.3 °F 23.4 °F 30.3 in Calm   1 mph 85 % 0 in
10:52 28.2 °F 24.6 °F 30.3 in Calm   1 mph 86 % 0 in
10:57 28.9 °F 25.3 °F 30.3 in Calm     86 % 0 in
11:02 29.8 °F 25.9 °F 30.3 in Calm     85 % 0 in
11:07 30.4 °F 25.9 °F 30.3 in Calm     83 % 0 in
11:12 30.4 °F 25.3 °F 30.3 in Calm     81 % 0 in
11:17 30.6 °F 25.7 °F 30.3 in Calm   1 mph 82 % 0 in
11:22 31.1 °F 25.9 °F 30.3 in Calm   1 mph 81 % 0 in
11:27 31.6 °F 26.2 °F 30.3 in Calm   1 mph 80 % 0 in
11:32 31.8 °F 26.4 °F 30.3 in Calm   1 mph 80 % 0 in
11:37 32.2 °F 26.8 °F 30.3 in Calm   1 mph 80 % 0 in
11:42 32.5 °F 27.1 °F 30.3 in Calm   1 mph 80 % 0 in
11:47 32.7 °F 27.3 °F 30.3 in Calm   1 mph 80 % 0 in
11:52 32.9 °F 27.1 °F 30.3 in Calm   1 mph 79 % 0 in
12:02 34.2 °F 28 °F 30.3 in Calm   1 mph 78 % 0 in
12:07 34.7 °F 27.7 °F 30.3 in East 1 mph 1 mph 75 % 0 in
12:12 34.9 °F 26.8 °F 30.3 in SE 1 mph 2 mph 72 % 0 in
12:17 35.2 °F 28 °F 30.3 in Calm   2 mph 75 % 0 in
12:22 36 °F 27.9 °F 30.3 in East 2 mph 2 mph 72 % 0 in
12:27 36 °F 26.8 °F 30.3 in East 2 mph 2 mph 69 % 0 in
12:32 36.1 °F 26.6 °F 30.3 in East 4 mph 4 mph 68 % 0 in
12:37 36.1 °F 26.2 °F 30.3 in ENE 4 mph 4 mph 67 % 0 in
12:42 36.1 °F 27.3 °F 30.3 in ENE 3 mph 5 mph 70 % 0 in
12:47 36.1 °F 26.6 °F 30.3 in East 3 mph 5 mph 68 % 0 in
12:52 36.1 °F 27.3 °F 30.3 in ENE 1 mph 5 mph 70 % 0 in
12:57 36.3 °F 27.1 °F 30.3 in East 2 mph 5 mph 69 % 0 in
13:02 36.3 °F 26.8 °F 30.2 in ENE 4 mph 5 mph 68 % 0 in
13:07 36.5 °F 27.3 °F 30.2 in Calm   5 mph 69 % 0 in
13:12 36.9 °F 27.3 °F 30.2 in ENE 3 mph 5 mph 68 % 0 in
13:17 37 °F 27.1 °F 30.2 in ENE 2 mph 5 mph 67 % 0 in
13:22 37 °F 27.5 °F 30.2 in NNE 2 mph 5 mph 68 % 0 in
13:32 37.2 °F 27 °F 30.2 in NE 2 mph 5 mph 66 % 0 in
13:37 37.2 °F 27.3 °F 30.2 in NE 2 mph 5 mph 67 % 0 in
13:42 37.6 °F 27.3 °F 30.2 in NNE 3 mph 4 mph 66 % 0 in
13:47 37.8 °F 27.5 °F 30.2 in NE 2 mph 6 mph 66 % 0 in
13:52 37.9 °F 28 °F 30.2 in NNE 5 mph 6 mph 67 % 0 in
13:57 38.5 °F 27 °F 30.2 in NNW 1 mph 6 mph 63 % 0 in
14:02 38.7 °F 27.5 °F 30.2 in NNE 1 mph 6 mph 64 % 0 in
14:07 39 °F 27.5 °F 30.2 in North 3 mph 7 mph 63 % 0 in
14:12 39.6 °F 28 °F 30.2 in NNW 2 mph 7 mph 63 % 0 in
14:22 39.9 °F 27.5 °F 30.2 in NNE 5 mph 8 mph 61 % 0 in
14:27 40.5 °F 27.3 °F 30.2 in NNE 4 mph 7 mph 59 % 0 in
14:32 40.6 °F 26.2 °F 30.2 in NNE 4 mph 7 mph 56 % 0 in
14:37 40.8 °F 27.1 °F 30.2 in NE 5 mph 8 mph 58 % 0 in
14:42 41.2 °F 27.5 °F 30.2 in North 6 mph 8 mph 58 % 0 in
14:47 41.2 °F 26.6 °F 30.2 in NE 6 mph 9 mph 56 % 0 in
14:52 41.5 °F 27.5 °F 30.2 in North 3 mph 9 mph 57 % 0 in
14:57 41.5 °F 27 °F 30.2 in NE 2 mph 9 mph 56 % 0 in
15:02 41.5 °F 27.9 °F 30.2 in NNE 5 mph 9 mph 58 % 0 in
15:07 41.5 °F 27.5 °F 30.2 in ENE 2 mph 8 mph 57 % 0 in
15:12 41.5 °F 26.6 °F 30.2 in NE 5 mph 8 mph 55 % 0 in
15:17 41.5 °F 27.9 °F 30.2 in North 2 mph 6 mph 58 % 0 in
15:27 41.7 °F 27.7 °F 30.2 in NE 4 mph 6 mph 57 % 0 in
15:32 41.5 °F 27 °F 30.2 in WNW 2 mph 6 mph 56 % 0 in
15:37 41.4 °F 26.8 °F 30.2 in NNE 3 mph 7 mph 56 % 0 in
15:42 41 °F 27 °F 30.2 in NNW 1 mph 7 mph 57 % 0 in
15:47 40.8 °F 26.8 °F 30.2 in NNW 1 mph 7 mph 57 % 0 in
15:52 40.8 °F 27.7 °F 30.2 in Calm   7 mph 59 % 0 in
16:02 40.5 °F 28 °F 30.2 in NNE 3 mph 6 mph 61 % 0 in
16:07 40.3 °F 28.2 °F 30.2 in North 3 mph 4 mph 62 % 0 in
16:12 40.1 °F 28 °F 30.2 in NNW 1 mph 4 mph 62 % 0 in
16:17 39.9 °F 28.4 °F 30.2 in Calm   4 mph 63 % 0 in
16:22 39.9 °F 28.4 °F 30.2 in North 3 mph 3 mph 63 % 0 in
16:27 39.7 °F 28.2 °F 30.2 in NNW 2 mph 5 mph 63 % 0 in
16:37 39.2 °F 28.4 °F 30.2 in NNE 3 mph 6 mph 65 % 0 in
16:42 38.8 °F 28.4 °F 30.2 in NNW 3 mph 6 mph 66 % 0 in
16:47 38.5 °F 28.8 °F 30.2 in North 3 mph 6 mph 68 % 0 in
16:52 38.1 °F 28.6 °F 30.2 in NNW 4 mph 6 mph 68 % 0 in
16:57 37.9 °F 28.4 °F 30.2 in NNW 1 mph 6 mph 68 % 0 in
17:02 37.9 °F 28.4 °F 30.2 in WNW 1 mph 6 mph 68 % 0 in
17:07 37.9 °F 28 °F 30.2 in NW 1 mph 5 mph 67 % 0 in
17:12 37.8 °F 27.9 °F 30.2 in NNW 1 mph 2 mph 67 % 0 in
17:22 36.9 °F 28 °F 30.2 in North 1 mph 2 mph 70 % 0 in
17:27 36.7 °F 27.9 °F 30.2 in NNW 2 mph 2 mph 70 % 0 in
17:32 36.7 °F 27.9 °F 30.2 in NNW 1 mph 2 mph 70 % 0 in
17:37 36.5 °F 27.7 °F 30.2 in NW 1 mph 4 mph 70 % 0 in
17:42 36.1 °F 28 °F 30.2 in NNE 2 mph 4 mph 72 % 0 in
17:47 36 °F 27.9 °F 30.2 in NNW 1 mph 4 mph 72 % 0 in
17:52 36 °F 27.5 °F 30.2 in Calm   4 mph 71 % 0 in
17:57 36 °F 27.5 °F 30.2 in NW 1 mph 3 mph 71 % 0 in
18:02 35.8 °F 27.3 °F 30.2 in NW 1 mph 3 mph 71 % 0 in
18:07 35.6 °F 27.9 °F 30.2 in NNW 1 mph 2 mph 73 % 0 in
18:12 35.4 °F 27.7 °F 30.3 in NNW 2 mph 5 mph 73 % 0 in
18:17 35.6 °F 27.1 °F 30.3 in NNW 5 mph 5 mph 71 % 0 in
18:22 35.4 °F 27 °F 30.3 in NNW 3 mph 6 mph 71 % 0 in
18:32 35.4 °F 27 °F 30.3 in NNW 6 mph 7 mph 71 % 0 in
18:37 35.4 °F 27 °F 30.3 in North 5 mph 7 mph 71 % 0 in
18:42 35.2 °F 27.1 °F 30.3 in NNW 3 mph 10 mph 72 % 0 in
18:47 35.1 °F 27 °F 30.3 in NNE 2 mph 10 mph 72 % 0 in
18:57 34.9 °F 27.1 °F 30.3 in Calm   10 mph 73 % 0 in
19:02 34.9 °F 27.5 °F 30.3 in Calm   10 mph 74 % 0 in
19:07 34.7 °F 27.3 °F 30.3 in North 7 mph 7 mph 74 % 0 in
19:12 34.7 °F 27.3 °F 30.3 in NNW 1 mph 7 mph 74 % 0 in
19:17 34.5 °F 27.1 °F 30.3 in NNE 3 mph 7 mph 74 % 0 in
19:22 34.3 °F 27.3 °F 30.3 in NNW 2 mph 7 mph 75 % 0 in
19:27 34.3 °F 27.3 °F 30.3 in North 5 mph 6 mph 75 % 0 in
19:32 34.2 °F 27.1 °F 30.3 in North 5 mph 6 mph 75 % 0 in
19:37 34.2 °F 27.1 °F 30.3 in NW 1 mph 8 mph 75 % 0 in
19:42 34.2 °F 27.3 °F 30.3 in North 2 mph 8 mph 76 % 0 in
19:47 34 °F 27.1 °F 30.3 in NNE 3 mph 8 mph 76 % 0 in
19:52 34 °F 27.1 °F 30.3 in NNE 4 mph 8 mph 76 % 0 in
19:57 34 °F 27.1 °F 30.3 in North 6 mph 10 mph 76 % 0 in
20:02 34 °F 27.1 °F 30.3 in NNW 4 mph 10 mph 76 % 0 in
20:07 34 °F 27.1 °F 30.3 in NNW 3 mph 10 mph 76 % 0 in
20:12 33.8 °F 27.3 °F 30.3 in NNE 5 mph 10 mph 77 % 0 in
20:17 33.6 °F 27.1 °F 30.3 in NNE 5 mph 10 mph 77 % 0 in
20:22 33.6 °F 27.1 °F 30.3 in North 4 mph 10 mph 77 % 0 in
20:32 33.4 °F 27.3 °F 30.3 in North 5 mph 9 mph 78 % 0 in
20:37 33.3 °F 27.1 °F 30.3 in North 2 mph 8 mph 78 % 0 in
20:42 33.3 °F 27.1 °F 30.3 in NNW 6 mph 8 mph 78 % 0 in
20:47 33.1 °F 27 °F 30.3 in NE 2 mph 8 mph 78 % 0 in
20:52 33.1 °F 27 °F 30.3 in NNW 1 mph 8 mph 78 % 0 in
20:57 32.9 °F 27.1 °F 30.3 in NW 2 mph 8 mph 79 % 0 in
21:02 32.7 °F 27 °F 30.3 in NE 5 mph 8 mph 79 % 0 in
21:07 32.7 °F 27 °F 30.3 in NE 4 mph 6 mph 79 % 0 in
21:12 32.5 °F 26.8 °F 30.3 in NNW 2 mph 6 mph 79 % 0 in
21:17 32.5 °F 26.8 °F 30.3 in North 4 mph 6 mph 79 % 0 in
21:22 32.5 °F 27.1 °F 30.3 in North 1 mph 6 mph 80 % 0 in
21:27 32.4 °F 27 °F 30.3 in North 5 mph 7 mph 80 % 0 in
21:32 32.4 °F 27.1 °F 30.3 in North 4 mph 7 mph 81 % 0 in
21:37 32.2 °F 27 °F 30.3 in NNE 2 mph 6 mph 81 % 0 in
21:43 32.2 °F 27 °F 30.3 in NE 3 mph 6 mph 81 % 0 in
21:52 32.2 °F 27 °F 30.3 in North 2 mph 8 mph 81 % 0 in
21:57 32 °F 26.8 °F 30.3 in NNW 5 mph 8 mph 81 % 0 in
22:02 32 °F 26.8 °F 30.3 in North 5 mph 8 mph 81 % 0 in
22:07 32 °F 26.8 °F 30.3 in North 6 mph 8 mph 81 % 0 in
22:12 32 °F 26.8 °F 30.3 in NNE 6 mph 8 mph 81 % 0 in
22:17 32 °F 26.8 °F 30.3 in NW 6 mph 9 mph 81 % 0 in
22:22 32 °F 26.8 °F 30.3 in NNW 3 mph 9 mph 81 % 0 in
22:27 31.8 °F 26.6 °F 30.3 in NW 3 mph 8 mph 81 % 0 in
22:32 31.8 °F 26.6 °F 30.3 in NW 2 mph 8 mph 81 % 0 in
22:37 31.8 °F 26.6 °F 30.3 in NW 3 mph 6 mph 81 % 0 in
22:42 31.8 °F 26.6 °F 30.3 in NNW 1 mph 6 mph 81 % 0 in
22:47 31.8 °F 26.6 °F 30.3 in NNE 2 mph 5 mph 81 % 0 in
22:52 32 °F 26.8 °F 30.3 in NNE 2 mph 5 mph 81 % 0 in
22:57 32 °F 26.8 °F 30.3 in NNW 1 mph 4 mph 81 % 0 in
23:02 32 °F 26.8 °F 30.3 in Calm   4 mph 81 % 0 in
23:07 32 °F 26.8 °F 30.3 in NE 1 mph 3 mph 81 % 0 in
23:12 32 °F 26.8 °F 30.3 in Calm   3 mph 81 % 0 in
23:17 32 °F 26.8 °F 30.3 in Calm   2 mph 81 % 0 in
23:22 31.8 °F 26.6 °F 30.3 in Calm   2 mph 81 % 0 in
23:27 32 °F 26.8 °F 30.3 in Calm   2 mph 81 % 0 in
23:32 32 °F 26.6 °F 30.3 in Calm   2 mph 80 % 0 in
23:37 31.8 °F 26.6 °F 30.3 in Calm   3 mph 81 % 0 in
23:42 31.8 °F 26.6 °F 30.3 in NNE 1 mph 3 mph 81 % 0 in
23:47 31.6 °F 26.8 °F 30.3 in NE 3 mph 4 mph 82 % 0 in
23:52 31.6 °F 26.8 °F 30.3 in NE 1 mph 4 mph 82 % 0 in
23:57 31.5 °F 26.6 °F 30.3 in Calm   4 mph 82 % 0 in
Meteo18
Compliments of Weather Underground - 4 mb

Script developed by  Jim McMurry - jmcmurry@mwt.net Adapted for the template by  Wim van der Kuil - Leuven-Template.eu

You find our weather info also at:

European Weather Network

Weather Underground

Equipment we use:

Weather-station
Davis Vue

Weather-program
Meteohub

Weather-server
Raspberry PI 2 B+

Provider
1 and 1

Davis Vue

Meteohub

Raspberry PI 2 B+

1 and 1